Pendleton, OR

01:38:PDT den 21. Oktober 2014 (GMT -0700)
Hermiston Municipal | Change Station
CLOSE
Current Station
Flyplass
Location: Hermiston,
Høyde over havet: 640 ft
Nearby Weather Stations

H.o.h 640 ft 45.83 °N, 119.26 °W | Updated 45 minutes ago

For det meste skyet
For det meste skyet
52 °F
Feels Like 52 °F
N
8
Vind Variabel Vind from VSV

I dag
High -- | Low -- °F
--% Chance of Precip.
I går
High -- | Low -- °F
Precip. -- tommer
7:19 AM 5:58 PM
Minkende sigd, 6% visible
Lufttrykk 29.83 tommer
Sikt 10.0 eng. mil
Skyet Klart
Duggpunkt 49 °F
Fuktighet 89%
Regn 0.00 tommer
Snødybde Not available.
UV 0 av 12
Pollen 2.90 av 12
Luftkvalitet Not available.
Flu Activity Sporadic
METAR KHRI 210753Z AUTO 25007KT 10SM CLR 11/09 A2984 RMK AO2 SLP101 T01110094 402280033

More Conditions Fewer Conditions

Lufttrykk 29.83 tommer
Sikt 10.0 eng. mil
Skyet Klart
Duggpunkt 49 °F
Fuktighet 89%
Regn 0.00 tommer
Snødybde Not available.
UV 0 av 12
Pollen 2.90 av 12
Luftkvalitet Not available.
Flu Activity Sporadic
METAR KHRI 210753Z AUTO 25007KT 10SM CLR 11/09 A2984 RMK AO2 SLP101 T01110094 402280033

More Conditions Fewer Conditions

10-Day Weather Forecast

Almanac

Astronomi

Oct. 21, 2014 Oppgang Nedgang
Virkelig tid 07:19 PDT 17:58 PDT
Tussmørke 06:49 PDT 18:29 PDT
Nautisk skumring 06:14 PDT 19:03 PDT
Astronomisk skumring 05:40 PDT 19:37 PDT
Månen 05:02 PDT 17:00 PDT
Lengde av synlig lys 11h 39m
Dagens lengde
10h 39m
Tomorrow will be 3m 2s shorter.
Minkende sigd, 6% of the Moon is Illuminated
I dag
Minkende sigd
Oct 23
Ny
Oct 30
Første kvarter
Nov 6
Fullmåne
Nov 14
Siste kvarter

Dagens maks og min

State Highs State Lows

Community

WunderPhotos

Upload Photos

1,763,619 photos uploaded!

Nearby

Snødybde

Stasjon Depth Høyde over havet
Emigrant Springs 2 in 3925 ft
Bowman Springs 0 in 4580 ft
Lucky Strike 2 in 5050 ft
High Ridge 0 in 4980 ft
County Line 0 in 4800 ft

Earthquake Activity

By Distance Mag. Time & Date
No recent earthquake activity has been reported nearby.
Minimum magnitude displayed is 2.5.

Coastal Water Temperatures

Sted Temperatur
Ingen stasjoner raporterer

Nearby Weather Stations